createdAt,value
2023-02-14T00:02:24.336Z,61.39
2023-02-14T00:04:50.671Z,61.73
2023-02-14T00:07:16.997Z,61.62
2023-02-14T00:09:43.271Z,61.28
2023-02-14T00:12:09.557Z,61.28
2023-02-14T00:14:35.830Z,61.56
2023-02-14T00:17:02.096Z,61.46
2023-02-14T00:19:28.380Z,61.02
2023-02-14T00:21:54.649Z,61.32
2023-02-14T00:24:20.906Z,61.35
2023-02-14T00:26:47.191Z,61.17
2023-02-14T00:29:13.475Z,61.38
2023-02-14T00:31:39.872Z,61.53
2023-02-14T00:34:06.282Z,61.65
2023-02-14T00:36:32.582Z,61.26
2023-02-14T00:38:58.868Z,61.67
2023-02-14T00:41:25.246Z,61.25
2023-02-14T00:43:51.536Z,61.14
2023-02-14T00:46:17.805Z,61.12
2023-02-14T00:48:44.092Z,61.04
2023-02-14T00:51:10.357Z,61.29
2023-02-14T00:53:36.605Z,60.91
2023-02-14T00:56:02.881Z,60.95
2023-02-14T00:58:29.152Z,61.25
2023-02-14T01:00:55.508Z,60.98
2023-02-14T01:03:21.780Z,61.11
2023-02-14T01:05:48.051Z,61.23
2023-02-14T01:08:14.315Z,60.93
2023-02-14T01:10:40.582Z,60.83
2023-02-14T01:13:06.852Z,60.94
2023-02-14T01:15:33.145Z,61.28
2023-02-14T01:17:59.431Z,61.48
2023-02-14T01:20:25.726Z,61.46
2023-02-14T01:22:52.026Z,61.37
2023-02-14T01:25:18.286Z,61.38
2023-02-14T01:27:44.561Z,61.48
2023-02-14T01:30:10.847Z,61.17
2023-02-14T01:32:37.121Z,61.22
2023-02-14T01:35:03.453Z,61.13
2023-02-14T01:37:29.720Z,61.26
2023-02-14T01:39:56.019Z,61.33
2023-02-14T01:42:22.299Z,61.21
2023-02-14T01:44:48.557Z,61.46
2023-02-14T01:47:14.891Z,61.33
2023-02-14T01:49:41.181Z,61.51
2023-02-14T01:52:07.566Z,61.19
2023-02-14T01:54:33.842Z,61.36
2023-02-14T01:57:00.164Z,61.64
2023-02-14T01:59:26.468Z,61.53
2023-02-14T02:01:52.759Z,61.72
2023-02-14T02:04:19.059Z,61.50
2023-02-14T02:06:45.322Z,61.82
2023-02-14T02:09:11.586Z,61.93
2023-02-14T02:11:37.859Z,62.00
2023-02-14T02:14:04.117Z,61.89
2023-02-14T02:16:30.399Z,61.65
2023-02-14T02:18:56.690Z,61.56
2023-02-14T02:21:22.976Z,61.53
2023-02-14T02:23:49.231Z,61.33
2023-02-14T02:26:15.513Z,61.75
2023-02-14T02:28:41.783Z,61.51
2023-02-14T02:31:08.153Z,61.28
2023-02-14T02:33:34.505Z,61.43
2023-02-14T02:36:00.747Z,61.25
2023-02-14T02:38:26.997Z,60.88
2023-02-14T02:40:53.281Z,61.36
2023-02-14T02:43:19.534Z,61.37
2023-02-14T02:45:45.852Z,61.43
2023-02-14T02:48:12.117Z,61.68
2023-02-14T02:50:38.426Z,61.82
2023-02-14T02:53:04.695Z,61.60
2023-02-14T02:55:30.959Z,61.61
2023-02-14T02:57:57.228Z,61.59
2023-02-14T03:00:23.522Z,62.01
2023-02-14T03:02:49.802Z,61.76
2023-02-14T03:05:16.134Z,61.95
2023-02-14T03:07:42.443Z,61.95
2023-02-14T03:10:08.711Z,62.18
2023-02-14T03:12:35.074Z,61.96
2023-02-14T03:15:01.315Z,61.74
2023-02-14T03:17:27.579Z,62.00
2023-02-14T03:19:53.860Z,62.37
2023-02-14T03:22:20.156Z,62.25
2023-02-14T03:24:46.439Z,62.48
2023-02-14T03:27:12.825Z,62.27
2023-02-14T03:29:39.104Z,62.22
2023-02-14T03:32:05.517Z,62.20
2023-02-14T03:34:31.886Z,62.25
2023-02-14T03:36:58.142Z,62.43
2023-02-14T03:39:24.418Z,62.38
2023-02-14T03:41:50.687Z,62.41
2023-02-14T03:44:17.010Z,62.46
2023-02-14T03:46:43.335Z,62.33
2023-02-14T03:49:09.672Z,62.59
2023-02-14T03:51:35.944Z,62.66
2023-02-14T03:54:02.227Z,62.96
2023-02-14T03:56:28.505Z,62.97
2023-02-14T03:58:54.766Z,63.00
2023-02-14T04:01:21.081Z,62.58
2023-02-14T04:03:47.443Z,62.80
2023-02-14T04:06:13.801Z,63.01
2023-02-14T04:08:40.066Z,62.90
2023-02-14T04:11:06.337Z,62.96
2023-02-14T04:13:32.622Z,62.95
2023-02-14T04:15:58.959Z,62.94
2023-02-14T04:18:25.249Z,62.60
2023-02-14T04:20:51.495Z,62.26
2023-02-14T04:23:17.770Z,62.10
2023-02-14T04:25:44.017Z,62.09
2023-02-14T04:28:10.307Z,61.74
2023-02-14T04:30:36.580Z,61.67
2023-02-14T04:33:02.851Z,62.05
2023-02-14T04:35:29.129Z,62.05
2023-02-14T04:37:55.391Z,62.46
2023-02-14T04:40:21.647Z,62.18
2023-02-14T04:42:47.933Z,62.12
2023-02-14T04:45:14.210Z,62.21
2023-02-14T04:47:40.489Z,62.52
2023-02-14T04:50:06.762Z,62.75
2023-02-14T04:52:33.018Z,62.50
2023-02-14T04:54:59.282Z,62.82
2023-02-14T04:57:25.546Z,63.24
2023-02-14T04:59:51.801Z,63.49
2023-02-14T05:02:18.096Z,63.16
2023-02-14T05:04:44.465Z,63.35
2023-02-14T05:07:10.733Z,63.32
2023-02-14T05:09:37.011Z,63.18
2023-02-14T05:12:03.277Z,63.59
2023-02-14T05:14:29.651Z,63.46
2023-02-14T05:16:55.920Z,63.61
2023-02-14T05:19:22.180Z,63.61
2023-02-14T05:21:48.453Z,63.67
2023-02-14T05:24:14.712Z,63.37
2023-02-14T05:26:41.033Z,63.42
2023-02-14T05:29:07.322Z,63.28
2023-02-14T05:31:33.694Z,63.00
2023-02-14T05:33:59.998Z,62.98
2023-02-14T05:36:26.319Z,62.65
2023-02-14T05:38:52.577Z,62.41
2023-02-14T05:41:18.856Z,62.62
2023-02-14T05:43:45.124Z,63.00
2023-02-14T05:46:11.429Z,62.41
2023-02-14T05:48:37.725Z,62.64
2023-02-14T05:51:04.011Z,62.52
2023-02-14T05:53:30.282Z,62.55
2023-02-14T05:55:56.550Z,62.77
2023-02-14T05:58:22.824Z,62.62
2023-02-14T06:00:49.097Z,62.67
2023-02-14T06:03:15.387Z,63.25
2023-02-14T06:05:41.642Z,63.36
2023-02-14T06:08:07.906Z,63.57
2023-02-14T06:10:34.175Z,63.54
2023-02-14T06:13:00.449Z,63.28
2023-02-14T06:15:26.735Z,63.13
2023-02-14T06:17:52.997Z,63.58
2023-02-14T06:20:19.270Z,63.64
2023-02-14T06:22:45.544Z,63.40
2023-02-14T06:25:11.818Z,63.10
2023-02-14T06:27:38.092Z,62.87
2023-02-14T06:30:04.405Z,62.51
2023-02-14T06:32:30.707Z,62.78
2023-02-14T06:34:56.966Z,62.24
2023-02-14T06:37:23.238Z,62.13
2023-02-14T06:39:49.511Z,62.19
2023-02-14T06:42:15.779Z,61.94
2023-02-14T06:44:42.058Z,62.13
2023-02-14T06:47:08.306Z,62.47
2023-02-14T06:49:34.609Z,62.42
2023-02-14T06:52:00.881Z,62.30
2023-02-14T06:54:27.139Z,62.50
2023-02-14T06:56:53.410Z,62.72
2023-02-14T06:59:19.676Z,62.75
2023-02-14T07:01:46.038Z,62.92
2023-02-14T07:04:12.315Z,62.92
2023-02-14T07:06:38.574Z,63.10
2023-02-14T07:09:04.827Z,62.95
2023-02-14T07:11:31.110Z,63.27
2023-02-14T07:13:57.390Z,63.30
2023-02-14T07:16:23.649Z,63.92
2023-02-14T07:18:49.914Z,63.97
2023-02-14T07:21:16.218Z,64.88
2023-02-14T07:23:42.500Z,64.58
2023-02-14T07:26:08.770Z,65.26
2023-02-14T07:28:35.061Z,66.00
2023-02-14T07:31:01.828Z,66.20
2023-02-14T07:33:28.325Z,67.89
2023-02-14T07:35:54.608Z,67.75
2023-02-14T07:38:20.875Z,68.26
2023-02-14T07:40:47.170Z,67.64
2023-02-14T07:43:13.440Z,66.54
2023-02-14T07:45:39.710Z,66.70
2023-02-14T07:48:06.054Z,65.63
2023-02-14T07:50:32.355Z,65.70
2023-02-14T07:52:58.642Z,65.18
2023-02-14T07:55:24.906Z,65.16
2023-02-14T07:57:51.180Z,65.06
2023-02-14T08:00:17.457Z,65.00
2023-02-14T08:02:43.734Z,64.66
2023-02-14T08:05:10.078Z,64.31
2023-02-14T08:07:36.407Z,64.48
2023-02-14T08:10:02.696Z,64.39
2023-02-14T08:12:28.947Z,63.99
2023-02-14T08:14:55.238Z,63.65
2023-02-14T08:17:21.670Z,63.88
2023-02-14T08:19:47.933Z,63.71
2023-02-14T08:22:14.199Z,63.73
2023-02-14T08:24:40.465Z,64.11
2023-02-14T08:27:06.752Z,63.67
2023-02-14T08:29:33.034Z,63.91
2023-02-14T08:31:59.463Z,64.26
2023-02-14T08:34:25.821Z,63.71
2023-02-14T08:36:52.074Z,64.23
2023-02-14T08:39:18.370Z,63.90
2023-02-14T08:41:44.664Z,64.31
2023-02-14T08:44:11.017Z,64.31
2023-02-14T08:46:37.385Z,64.34
2023-02-14T08:49:03.691Z,64.31
2023-02-14T08:51:29.954Z,64.13
2023-02-14T08:53:56.289Z,64.53
2023-02-14T08:56:22.583Z,64.33
2023-02-14T08:58:48.889Z,64.69
2023-02-14T09:01:15.192Z,64.83
2023-02-14T09:03:41.638Z,64.92
2023-02-14T09:06:07.950Z,64.46
2023-02-14T09:08:34.246Z,64.27
2023-02-14T09:11:00.832Z,64.42
2023-02-14T09:13:27.288Z,64.87
2023-02-14T09:15:53.561Z,65.22
2023-02-14T09:18:19.861Z,65.36
2023-02-14T09:20:46.153Z,64.81
2023-02-14T09:23:12.480Z,65.02
2023-02-14T09:25:38.739Z,65.68
2023-02-14T09:28:05.010Z,65.15
2023-02-14T09:30:31.415Z,65.42
2023-02-14T09:32:57.682Z,65.58
2023-02-14T09:35:24.173Z,65.98
2023-02-14T09:37:50.501Z,65.72
2023-02-14T09:40:16.783Z,66.31
2023-02-14T09:42:43.066Z,65.72
2023-02-14T09:45:09.363Z,66.23
2023-02-14T09:47:35.670Z,65.75
2023-02-14T09:50:02.050Z,66.46
2023-02-14T09:52:28.386Z,66.54
2023-02-14T09:54:54.692Z,66.12
2023-02-14T09:57:20.967Z,66.52
2023-02-14T09:59:47.235Z,66.19
2023-02-14T10:02:14.565Z,66.28
2023-02-14T10:04:40.869Z,66.45
2023-02-14T10:07:07.374Z,66.19
2023-02-14T10:09:33.653Z,65.53
2023-02-14T10:11:59.925Z,65.64
2023-02-14T10:14:26.265Z,65.55
2023-02-14T10:16:52.619Z,65.26
2023-02-14T10:19:18.932Z,65.81
2023-02-14T10:21:47.110Z,65.98
2023-02-14T10:24:14.219Z,66.16
2023-02-14T10:26:40.465Z,65.59
2023-02-14T10:29:06.771Z,65.52
2023-02-14T10:31:33.202Z,65.56
2023-02-14T10:33:59.518Z,65.74
2023-02-14T10:36:25.778Z,65.36
2023-02-14T10:38:52.074Z,65.65
2023-02-14T10:41:18.349Z,66.16
2023-02-14T10:43:44.631Z,66.06
2023-02-14T10:46:10.980Z,65.72
2023-02-14T10:48:37.319Z,65.02
2023-02-14T10:51:03.604Z,64.45
2023-02-14T10:53:29.930Z,64.68
2023-02-14T10:55:56.201Z,65.07
2023-02-14T10:58:22.483Z,64.70
2023-02-14T11:00:48.801Z,64.68
2023-02-14T11:03:15.231Z,64.22
2023-02-14T11:05:41.582Z,64.06
2023-02-14T11:08:07.863Z,63.59
2023-02-14T11:10:34.214Z,63.53
2023-02-14T11:13:00.545Z,62.89
2023-02-14T11:15:26.846Z,61.22
2023-02-14T11:17:53.156Z,60.03
2023-02-14T11:20:19.550Z,58.77
2023-02-14T11:22:45.876Z,60.22
2023-02-14T11:25:12.175Z,58.67
2023-02-14T11:27:38.446Z,58.16
2023-02-14T11:30:04.748Z,57.88
2023-02-14T11:32:31.053Z,58.17
2023-02-14T11:34:57.324Z,57.41
2023-02-14T11:37:23.590Z,57.29
2023-02-14T11:39:49.853Z,56.83
2023-02-14T11:42:16.125Z,56.86
2023-02-14T11:44:42.406Z,57.11
2023-02-14T11:47:08.769Z,57.23
2023-02-14T11:49:35.026Z,56.97
2023-02-14T11:52:01.297Z,56.83
2023-02-14T11:54:27.568Z,55.13
2023-02-14T11:56:53.861Z,54.77
2023-02-14T11:59:20.154Z,56.81
2023-02-14T12:01:46.459Z,56.10
2023-02-14T12:04:12.747Z,55.93
2023-02-14T12:06:39.017Z,56.02
2023-02-14T12:09:05.270Z,54.99
2023-02-14T12:11:31.517Z,54.67
2023-02-14T12:13:57.789Z,54.32
2023-02-14T12:16:24.078Z,53.64
2023-02-14T12:18:50.362Z,53.71
2023-02-14T12:21:16.622Z,54.38
2023-02-14T12:23:42.905Z,54.07
2023-02-14T12:26:09.171Z,53.98
2023-02-14T12:28:35.496Z,53.27
2023-02-14T12:31:02.126Z,53.20
2023-02-14T12:33:28.606Z,52.92
2023-02-14T12:35:54.869Z,52.64
2023-02-14T12:38:21.157Z,52.71
2023-02-14T12:40:47.411Z,52.49
2023-02-14T12:43:13.706Z,52.23
2023-02-14T12:45:39.977Z,52.23
2023-02-14T12:48:06.270Z,51.97
2023-02-14T12:50:32.525Z,50.95
2023-02-14T12:52:58.795Z,51.03
2023-02-14T12:55:25.228Z,51.49
2023-02-14T12:57:51.517Z,51.39
2023-02-14T13:00:17.817Z,50.88
2023-02-14T13:02:44.156Z,52.72
2023-02-14T13:05:10.449Z,52.48
2023-02-14T13:07:36.710Z,52.24
2023-02-14T13:10:03.004Z,51.41
2023-02-14T13:12:29.293Z,51.11
2023-02-14T13:14:55.562Z,49.42
2023-02-14T13:17:21.935Z,49.38
2023-02-14T13:19:48.210Z,48.63
2023-02-14T13:22:14.576Z,47.62
2023-02-14T13:24:40.872Z,47.56
2023-02-14T13:27:07.173Z,48.00
2023-02-14T13:29:33.450Z,47.76
2023-02-14T13:31:59.732Z,49.20
2023-02-14T13:34:26.021Z,48.44
2023-02-14T13:36:52.314Z,47.36
2023-02-14T13:39:18.565Z,47.40
2023-02-14T13:41:44.854Z,47.95
2023-02-14T13:44:11.113Z,47.61
2023-02-14T13:46:37.425Z,47.06
2023-02-14T13:49:03.753Z,46.76
2023-02-14T13:51:30.345Z,47.38
2023-02-14T13:53:56.637Z,47.46
2023-02-14T13:56:22.892Z,48.85
2023-02-14T13:58:49.181Z,47.64
2023-02-14T14:01:15.491Z,47.80
2023-02-14T14:03:41.781Z,47.72
2023-02-14T14:06:08.074Z,47.45
2023-02-14T14:08:34.344Z,46.25
2023-02-14T14:11:00.648Z,47.33
2023-02-14T14:13:26.914Z,45.73
2023-02-14T14:15:53.206Z,46.12
2023-02-14T14:18:19.483Z,45.43
2023-02-14T14:20:45.733Z,45.41
2023-02-14T14:23:12.018Z,44.28
2023-02-14T14:25:38.333Z,43.97
2023-02-14T14:28:04.615Z,44.72
2023-02-14T14:30:30.942Z,44.68
2023-02-14T14:32:57.266Z,44.23
2023-02-14T14:35:23.535Z,43.26
2023-02-14T14:37:49.833Z,42.88
2023-02-14T14:40:16.157Z,43.58
2023-02-14T14:42:42.422Z,42.13
2023-02-14T14:45:08.706Z,42.54
2023-02-14T14:47:35.000Z,42.07
2023-02-14T14:50:01.311Z,41.63
2023-02-14T14:52:27.579Z,42.18
2023-02-14T14:54:53.849Z,42.91
2023-02-14T14:57:20.105Z,42.20
2023-02-14T14:59:46.364Z,43.06
2023-02-14T15:02:12.629Z,41.56
2023-02-14T15:04:38.916Z,41.18
2023-02-14T15:07:05.181Z,41.50
2023-02-14T15:09:31.464Z,39.63
2023-02-14T15:11:57.814Z,39.52
2023-02-14T15:14:24.064Z,40.47
2023-02-14T15:16:50.393Z,39.68
2023-02-14T15:19:16.696Z,41.00
2023-02-14T15:21:44.644Z,40.39
2023-02-14T15:24:11.070Z,40.41
2023-02-14T15:26:37.362Z,40.67
2023-02-14T15:29:03.635Z,41.19
2023-02-14T15:31:29.996Z,41.38
2023-02-14T15:33:56.318Z,41.75
2023-02-14T15:36:22.739Z,42.18
2023-02-14T15:38:49.003Z,41.24
2023-02-14T15:41:15.280Z,41.28
2023-02-14T15:43:41.524Z,41.49
2023-02-14T15:46:07.810Z,42.12
2023-02-14T15:48:34.094Z,41.29
2023-02-14T15:51:00.760Z,42.77
2023-02-14T15:53:27.201Z,41.79
2023-02-14T15:55:53.486Z,41.58
2023-02-14T15:58:19.772Z,41.62
2023-02-14T16:00:46.045Z,42.58
2023-02-14T16:03:12.301Z,42.99
2023-02-14T16:05:38.599Z,42.78
2023-02-14T16:08:04.909Z,41.28
2023-02-14T16:10:31.205Z,41.37
2023-02-14T16:12:57.811Z,40.98
2023-02-14T16:15:24.151Z,42.25
2023-02-14T16:17:50.418Z,42.85
2023-02-14T16:20:16.672Z,43.30
2023-02-14T16:22:42.930Z,43.52
2023-02-14T16:25:09.186Z,43.40
2023-02-14T16:27:35.459Z,44.18
2023-02-14T16:30:01.738Z,44.13
2023-02-14T16:32:28.151Z,44.34
2023-02-14T16:34:54.483Z,44.92
2023-02-14T16:37:20.757Z,44.81
2023-02-14T16:39:47.044Z,45.04
2023-02-14T16:42:13.325Z,44.57
2023-02-14T16:44:39.615Z,44.45
2023-02-14T16:47:05.910Z,45.09
2023-02-14T16:49:32.197Z,45.05
2023-02-14T16:51:58.475Z,45.53
2023-02-14T16:54:24.750Z,46.30
2023-02-14T16:56:51.054Z,46.52
2023-02-14T16:59:17.346Z,46.93
2023-02-14T17:01:43.688Z,47.32
2023-02-14T17:04:10.010Z,47.46
2023-02-14T17:06:36.508Z,47.29
2023-02-14T17:09:02.786Z,47.90
2023-02-14T17:11:29.072Z,48.01
2023-02-14T17:13:55.364Z,48.35
2023-02-14T17:16:21.683Z,48.51
2023-02-14T17:18:48.012Z,48.24
2023-02-14T17:21:14.296Z,48.11
2023-02-14T17:23:40.565Z,48.63
2023-02-14T17:26:06.846Z,48.81
2023-02-14T17:28:33.125Z,48.46
2023-02-14T17:31:00.800Z,48.27
2023-02-14T17:33:27.339Z,47.73
2023-02-14T17:35:53.682Z,48.11
2023-02-14T17:38:19.931Z,48.16
2023-02-14T17:40:46.199Z,48.04
2023-02-14T17:43:12.485Z,49.53
2023-02-14T17:45:38.737Z,49.78
2023-02-14T17:48:05.025Z,50.38
2023-02-14T17:50:31.293Z,51.01
2023-02-14T17:52:57.573Z,50.81
2023-02-14T17:55:23.847Z,51.83
2023-02-14T17:57:50.223Z,52.03
2023-02-14T18:00:16.477Z,52.32
2023-02-14T18:02:42.882Z,52.89
2023-02-14T18:05:09.159Z,52.56
2023-02-14T18:07:35.457Z,52.96
2023-02-14T18:10:01.834Z,53.23
2023-02-14T18:12:28.142Z,53.71
2023-02-14T18:14:54.397Z,53.86
2023-02-14T18:17:20.654Z,54.42
2023-02-14T18:19:46.928Z,54.05
2023-02-14T18:22:13.213Z,54.19
2023-02-14T18:24:39.478Z,54.09
2023-02-14T18:27:05.771Z,54.21
2023-02-14T18:29:32.031Z,54.46
2023-02-14T18:31:58.339Z,54.50
2023-02-14T18:34:24.711Z,54.59
2023-02-14T18:36:51.013Z,54.79
2023-02-14T18:39:17.288Z,54.56
2023-02-14T18:41:43.550Z,55.13
2023-02-14T18:44:09.820Z,55.11
2023-02-14T18:46:36.154Z,55.34
2023-02-14T18:49:02.445Z,55.42
2023-02-14T18:51:28.716Z,56.11
2023-02-14T18:53:54.988Z,55.62
2023-02-14T18:56:21.324Z,55.75
2023-02-14T18:58:47.634Z,55.87
2023-02-14T19:01:14.025Z,56.25
2023-02-14T19:03:40.326Z,56.46
2023-02-14T19:06:06.624Z,56.68
2023-02-14T19:08:32.891Z,56.86
2023-02-14T19:10:59.502Z,57.27
2023-02-14T19:13:25.922Z,57.04
2023-02-14T19:15:52.237Z,57.27
2023-02-14T19:18:18.522Z,57.51
2023-02-14T19:20:44.803Z,57.43
2023-02-14T19:23:11.056Z,57.51
2023-02-14T19:25:37.336Z,57.09
2023-02-14T19:28:03.620Z,57.04
2023-02-14T19:30:29.911Z,57.41
2023-02-14T19:32:56.267Z,57.13
2023-02-14T19:35:22.556Z,57.39
2023-02-14T19:37:48.950Z,57.66
2023-02-14T19:40:15.254Z,57.71
2023-02-14T19:42:41.519Z,57.58
2023-02-14T19:45:07.770Z,57.35
2023-02-14T19:50:06.079Z,57.46
2023-02-14T19:52:32.358Z,57.91
2023-02-14T19:54:58.614Z,58.12
2023-02-14T19:57:24.924Z,58.34
2023-02-14T19:59:51.180Z,58.63
2023-02-14T20:02:17.491Z,58.37
2023-02-14T20:04:43.806Z,58.70
2023-02-14T20:07:10.107Z,58.09
2023-02-14T20:09:36.385Z,58.25
2023-02-14T20:12:02.653Z,58.32
2023-02-14T20:14:28.938Z,58.22
2023-02-14T20:16:55.275Z,57.87
2023-02-14T20:19:21.581Z,58.01
2023-02-14T20:21:48.020Z,57.73
2023-02-14T20:24:14.278Z,57.84
2023-02-14T20:26:40.530Z,58.16
2023-02-14T20:29:06.872Z,58.06
2023-02-14T20:31:33.336Z,57.97
2023-02-14T20:33:59.653Z,58.38
2023-02-14T20:36:25.936Z,58.72
2023-02-14T20:38:52.201Z,58.57
2023-02-14T20:41:18.495Z,58.83
2023-02-14T20:43:44.841Z,59.15
2023-02-14T20:46:11.174Z,58.89
2023-02-14T20:48:37.549Z,59.45
2023-02-14T20:51:03.841Z,59.12
2023-02-14T20:53:30.374Z,59.86
2023-02-14T20:55:56.633Z,59.54
2023-02-14T20:58:22.932Z,59.61
2023-02-14T21:00:49.211Z,59.60
2023-02-14T21:03:15.578Z,59.53
2023-02-14T21:05:41.848Z,59.22
2023-02-14T21:08:08.098Z,59.29
2023-02-14T21:10:34.352Z,58.89
2023-02-14T21:13:00.627Z,58.97
2023-02-14T21:15:26.943Z,59.13
2023-02-14T21:17:53.219Z,59.43
2023-02-14T21:20:19.472Z,58.83
2023-02-14T21:22:45.744Z,58.94
2023-02-14T21:25:12.102Z,58.81
2023-02-14T21:27:38.355Z,59.09
2023-02-14T21:30:04.651Z,59.28
2023-02-14T21:32:30.948Z,59.21
2023-02-14T21:34:57.228Z,59.49
2023-02-14T21:37:23.493Z,59.72
2023-02-14T21:39:49.770Z,59.56
2023-02-14T21:42:16.018Z,59.61
2023-02-14T21:44:42.287Z,60.10
2023-02-14T21:47:08.552Z,59.97
2023-02-14T21:49:34.829Z,60.06
2023-02-14T21:52:01.087Z,60.20
2023-02-14T21:54:27.354Z,59.68
2023-02-14T21:56:53.621Z,59.53
2023-02-14T21:59:19.898Z,59.20
2023-02-14T22:01:46.199Z,59.29
2023-02-14T22:04:12.572Z,59.39
2023-02-14T22:06:38.938Z,58.71
2023-02-14T22:09:05.224Z,58.86
2023-02-14T22:11:31.498Z,59.14
2023-02-14T22:13:57.790Z,59.13
2023-02-14T22:16:24.064Z,59.08
2023-02-14T22:18:50.371Z,58.83
2023-02-14T22:21:16.647Z,59.01
2023-02-14T22:23:43.036Z,58.90
2023-02-14T22:26:09.294Z,59.25
2023-02-14T22:28:35.584Z,59.68
2023-02-14T22:31:02.239Z,60.11
2023-02-14T22:33:28.787Z,59.99
2023-02-14T22:35:55.049Z,60.40
2023-02-14T22:38:21.367Z,60.32
2023-02-14T22:40:47.645Z,60.38
2023-02-14T22:43:13.899Z,60.55
2023-02-14T22:45:40.171Z,59.86
2023-02-14T22:48:06.435Z,60.50
2023-02-14T22:50:32.791Z,60.51
2023-02-14T22:52:59.078Z,60.17
2023-02-14T22:55:25.336Z,60.91
2023-02-14T22:57:51.633Z,60.77
2023-02-14T23:00:17.900Z,60.60
2023-02-14T23:02:44.208Z,60.85
2023-02-14T23:05:10.519Z,60.26
2023-02-14T23:07:36.817Z,60.48
2023-02-14T23:10:03.112Z,60.02
2023-02-14T23:12:29.426Z,60.13
2023-02-14T23:14:55.688Z,60.16
2023-02-14T23:17:21.982Z,60.29
2023-02-14T23:19:48.264Z,59.78
2023-02-14T23:22:14.550Z,59.74
2023-02-14T23:24:40.824Z,59.65
2023-02-14T23:27:07.073Z,60.17
2023-02-14T23:29:33.342Z,60.46
2023-02-14T23:31:59.650Z,60.59
2023-02-14T23:34:25.988Z,60.80
2023-02-14T23:36:52.234Z,60.75
2023-02-14T23:39:18.501Z,60.78
2023-02-14T23:41:44.777Z,60.87
2023-02-14T23:44:11.032Z,60.84
2023-02-14T23:46:37.297Z,60.71
2023-02-14T23:49:03.555Z,60.86
2023-02-14T23:51:29.810Z,61.11
2023-02-14T23:53:56.087Z,61.27
2023-02-14T23:56:22.379Z,60.96
2023-02-14T23:58:48.644Z,60.93
